Time;durP1;ratioP1;P1;durP2;ratioP2;P2;SDS_P1;SDS_P2;PMS_P1;PMS_P2;Temp;Humidity;BMP_temperature;BMP_pressure;BME280_temperature;BME280_humidity;BME280_pressure;Samples;Min_cycle;Max_cycle;Signal;HPM_P1;HPM_P2
2021/06/10 00:00:21;;;;;;;5.60;3.23;;;;;;;23.61;51.92;100152.50;2110980;28;20097;-39
2021/06/10 00:01:21;;;;;;;4.40;3.10;;;;;;;23.59;51.86;100152.69;2113033;28;20075;-39
2021/06/10 00:02:22;;;;;;;4.23;3.43;;;;;;;23.61;51.81;100158.00;2112596;28;20024;-38
2021/06/10 00:03:23;;;;;;;6.82;3.67;;;;;;;23.59;51.75;100155.44;2108789;27;20059;-44
2021/06/10 00:04:23;;;;;;;6.17;3.53;;;;;;;23.61;51.95;100150.59;2119187;27;20026;-38
2021/06/10 00:05:24;;;;;;;5.87;4.03;;;;;;;23.61;51.86;100152.50;2115275;27;20040;-38
2021/06/10 00:06:24;;;;;;;7.20;3.50;;;;;;;23.61;51.96;100150.59;2113799;27;20051;-39
2021/06/10 00:07:25;;;;;;;4.60;3.80;;;;;;;23.60;51.98;100146.16;2111598;27;20159;-38
2021/06/10 00:08:25;;;;;;;5.47;3.50;;;;;;;23.61;52.04;100152.50;2113679;28;20027;-39
2021/06/10 00:09:26;;;;;;;4.60;3.40;;;;;;;23.61;51.93;100147.00;2117182;27;20026;-38
2021/06/10 00:10:28;;;;;;;4.53;3.37;;;;;;;23.61;51.84;100147.00;2113559;28;20091;-39
2021/06/10 00:11:28;;;;;;;4.18;3.25;;;;;;;23.60;51.97;100151.66;2102134;28;20073;-38
2021/06/10 00:12:29;;;;;;;5.30;3.90;;;;;;;23.61;52.01;100152.50;2110287;28;20204;-38
2021/06/10 00:13:30;;;;;;;6.40;3.93;;;;;;;23.60;51.99;100150.81;2111838;28;20682;-39
2021/06/10 00:14:31;;;;;;;4.43;3.38;;;;;;;23.59;51.94;100155.44;2112510;28;20027;-38
2021/06/10 00:15:34;;;;;;;4.67;3.17;;;;;;;23.61;51.83;100158.00;2117655;27;20348;-38
2021/06/10 00:16:34;;;;;;;4.82;3.70;;;;;;;23.59;51.98;100146.31;2115359;28;20015;-38
2021/06/10 00:17:35;;;;;;;4.97;3.47;;;;;;;23.59;51.98;100143.56;2117705;27;20023;-38
2021/06/10 00:18:36;;;;;;;6.00;3.83;;;;;;;23.60;52.06;100145.28;2114757;27;20027;-38
2021/06/10 00:19:36;;;;;;;6.07;3.30;;;;;;;23.59;51.90;100140.81;2106088;28;20020;-38
2021/06/10 00:20:39;;;;;;;5.30;3.57;;;;;;;23.58;52.07;100142.72;2109817;28;20038;-38
2021/06/10 00:21:40;;;;;;;4.50;3.42;;;;;;;23.60;52.10;100142.53;2110097;28;20020;-38
2021/06/10 00:22:41;;;;;;;4.20;3.08;;;;;;;23.58;52.10;100133.59;2104769;28;20059;-37
2021/06/10 00:23:41;;;;;;;7.20;3.30;;;;;;;23.58;52.04;100136.34;2097647;28;20777;-38
2021/06/10 00:24:42;;;;;;;5.53;3.50;;;;;;;23.59;52.18;100132.56;2111520;28;20027;-41
2021/06/10 00:25:43;;;;;;;3.87;3.33;;;;;;;23.59;52.25;100138.06;2108090;28;20120;-40
2021/06/10 00:26:44;;;;;;;4.70;3.00;;;;;;;23.59;52.18;100140.81;2112676;28;20464;-41
2021/06/10 00:27:45;;;;;;;6.73;3.87;;;;;;;23.59;52.14;100127.94;2113365;28;20034;-41
2021/06/10 00:28:45;;;;;;;6.30;4.13;;;;;;;23.59;52.05;100132.56;2108414;28;20020;-41
2021/06/10 00:29:47;;;;;;;5.37;3.33;;;;;;;23.59;52.18;100127.06;2111574;28;20037;-41
2021/06/10 00:30:47;;;;;;;4.43;2.90;;;;;;;23.59;52.18;100132.56;2114214;27;20027;-41
2021/06/10 00:31:48;;;;;;;4.40;2.90;;;;;;;23.59;52.14;100132.56;2112173;28;20019;-41
2021/06/10 00:32:50;;;;;;;4.87;2.97;;;;;;;23.59;52.23;100127.06;2118429;27;20015;-40
2021/06/10 00:33:50;;;;;;;4.95;3.15;;;;;;;23.59;52.01;100138.06;2105352;28;20119;-41
2021/06/10 00:34:51;;;;;;;4.27;3.07;;;;;;;23.59;52.09;100132.56;2104967;28;20020;-41
2021/06/10 00:35:51;;;;;;;4.07;3.10;;;;;;;23.60;52.20;100135.13;2113042;27;20035;-41
2021/06/10 00:36:52;;;;;;;5.47;3.33;;;;;;;23.61;52.28;100136.00;2114278;28;20096;-40
2021/06/10 00:37:58;;;;;;;5.10;3.30;;;;;;;23.59;52.34;100127.94;2116272;27;20019;-41
2021/06/10 00:38:58;;;;;;;4.88;3.58;;;;;;;23.59;52.16;100132.56;2112668;27;20089;-41
2021/06/10 00:39:59;;;;;;;4.97;3.37;;;;;;;23.60;52.16;100134.28;2106414;28;20069;-41
2021/06/10 00:41:00;;;;;;;6.20;3.53;;;;;;;23.59;52.44;100132.56;2111038;27;20110;-40
2021/06/10 00:42:00;;;;;;;4.57;3.37;;;;;;;23.58;52.29;100126.19;2113136;28;20591;-41
2021/06/10 00:43:01;;;;;;;4.97;3.33;;;;;;;23.59;52.41;100127.94;2113324;28;20024;-42
2021/06/10 00:44:05;;;;;;;4.57;3.47;;;;;;;23.59;52.20;100132.56;2113054;28;20030;-40
2021/06/10 00:45:09;;;;;;;4.50;3.30;;;;;;;23.59;52.24;100129.81;2107704;28;20560;-41
2021/06/10 00:46:10;;;;;;;5.05;3.15;;;;;;;23.57;52.27;100129.13;2103022;28;20044;-41
2021/06/10 00:47:10;;;;;;;3.60;2.90;;;;;;;23.59;52.29;100127.94;2103135;28;20028;-40
2021/06/10 00:48:11;;;;;;;4.07;3.13;;;;;;;23.60;52.23;100134.28;2114077;28;20334;-40
2021/06/10 00:49:12;;;;;;;5.30;3.27;;;;;;;23.59;52.39;100129.81;2117194;27;20046;-40
2021/06/10 00:50:13;;;;;;;5.67;3.50;;;;;;;23.59;52.43;100129.81;2116324;27;20055;-41
2021/06/10 00:51:13;;;;;;;4.05;3.05;;;;;;;23.59;52.32;100132.56;2120433;27;20470;-40
2021/06/10 00:52:14;;;;;;;4.83;2.87;;;;;;;23.59;52.44;100132.56;2108562;27;20031;-40
2021/06/10 00:53:25;;;;;;;6.50;3.03;;;;;;;23.57;52.47;100124.50;2119898;27;20072;-41
2021/06/10 00:54:26;;;;;;;5.63;3.65;;;;;;;23.59;52.30;100132.56;2111096;27;20062;-44
2021/06/10 00:55:26;;;;;;;4.63;3.43;;;;;;;23.59;52.47;100132.56;2112744;28;20027;-44
2021/06/10 00:56:27;;;;;;;4.47;3.47;;;;;;;23.57;52.41;100134.63;2113276;27;20059;-42
2021/06/10 00:57:27;;;;;;;5.87;2.87;;;;;;;23.54;52.39;100130.34;2108498;28;20023;-42
2021/06/10 00:58:28;;;;;;;4.73;3.20;;;;;;;23.52;52.30;100126.94;2113464;28;20051;-42
2021/06/10 00:59:29;;;;;;;5.63;3.10;;;;;;;23.49;52.24;100117.13;2113173;27;20083;-43
2021/06/10 01:00:30;;;;;;;6.63;3.40;;;;;;;23.48;52.34;100125.56;2113000;28;20036;-43
2021/06/10 01:01:30;;;;;;;6.50;3.23;;;;;;;23.45;52.36;100126.78;2112849;28;20023;-45
2021/06/10 01:02:31;;;;;;;5.73;3.40;;;;;;;23.44;52.31;100119.53;2113657;28;20845;-44
2021/06/10 01:03:31;;;;;;;5.53;3.83;;;;;;;23.44;52.32;100127.78;2114561;28;20062;-43
2021/06/10 01:04:32;;;;;;;5.83;3.40;;;;;;;23.44;52.36;100127.78;2109506;28;20020;-42
2021/06/10 01:05:32;;;;;;;6.13;3.40;;;;;;;23.43;52.54;100128.84;2106011;28;20055;-42
2021/06/10 01:06:51;;;;;;;6.67;3.53;;;;;;;23.40;52.50;100129.22;2112893;28;20050;-42
2021/06/10 01:08:23;;;;;;;7.32;3.63;;;;;;;23.37;52.70;100129.56;2113381;28;20023;-43
2021/06/10 01:09:41;;;;;;;5.22;3.35;;;;;;;23.36;52.65;100125.09;2114330;28;20536;-42
2021/06/10 01:11:02;;;;;;;5.15;4.00;;;;;;;23.36;52.79;100126.97;2113806;28;20130;-45
2021/06/10 01:12:12;;;;;;;4.90;3.50;;;;;;;23.36;52.77;100121.47;2113661;27;20029;-44
2021/06/10 01:13:22;;;;;;;3.42;3.10;;;;;;;23.34;52.88;100124.41;2110903;28;20041;-42
2021/06/10 01:14:34;;;;;;;6.95;3.33;;;;;;;23.34;52.72;100118.91;2114126;28;20127;-43
2021/06/10 01:15:39;;;;;;;4.30;3.40;;;;;;;23.35;52.62;100119.75;2111834;28;20023;-42
2021/06/10 01:16:43;;;;;;;6.82;3.58;;;;;;;23.35;52.83;100120.63;2115478;27;20024;-43
2021/06/10 01:17:47;;;;;;;6.03;3.33;;;;;;;23.35;52.64;100120.63;2116409;27;20020;-42
2021/06/10 01:18:48;;;;;;;5.10;3.47;;;;;;;23.34;52.73;100124.41;2111040;28;20062;-44
2021/06/10 01:20:08;;;;;;;4.03;3.22;;;;;;;23.34;52.99;100118.91;2113344;28;20031;-44
2021/06/10 01:21:08;;;;;;;5.28;3.05;;;;;;;23.34;52.84;100124.41;2107877;28;20077;-42
2021/06/10 01:22:21;;;;;;;4.57;3.53;;;;;;;23.32;52.93;100116.34;2109753;28;20662;-45
2021/06/10 01:23:37;;;;;;;5.30;3.10;;;;;;;23.32;52.83;100121.84;2109725;28;20028;-42
2021/06/10 01:24:57;;;;;;;4.72;2.90;;;;;;;23.31;52.99;100113.75;2111884;28;20058;-42
2021/06/10 01:26:25;;;;;;;5.53;3.30;;;;;;;23.30;52.90;100117.56;2116622;27;20425;-42
2021/06/10 01:27:28;;;;;;;5.63;3.70;;;;;;;23.30;52.79;100112.91;2110586;28;20036;-43
2021/06/10 01:28:34;;;;;;;5.63;4.00;;;;;;;23.31;52.85;100119.25;2110525;28;20043;-43
2021/06/10 01:29:36;;;;;;;4.60;3.50;;;;;;;23.29;52.79;100116.66;2110922;28;20030;-42
2021/06/10 01:30:46;;;;;;;4.72;3.17;;;;;;;23.29;53.13;100113.06;2113805;28;20106;-42
2021/06/10 01:31:46;;;;;;;4.15;3.55;;;;;;;23.30;53.02;100112.91;2112625;28;20077;-42
2021/06/10 01:32:53;;;;;;;4.77;3.37;;;;;;;23.29;52.92;100111.16;2114713;28;20031;-42
2021/06/10 01:33:57;;;;;;;5.47;3.30;;;;;;;23.29;52.88;100121.31;2113682;28;20081;-43
2021/06/10 01:35:00;;;;;;;3.97;3.05;;;;;;;23.28;53.06;100114.97;2114524;28;20535;-43
2021/06/10 01:36:07;;;;;;;6.03;3.72;;;;;;;23.29;53.08;100110.31;2113640;28;20032;-42
2021/06/10 01:37:08;;;;;;;4.32;3.38;;;;;;;23.29;52.83;100113.06;2112585;28;20270;-43
2021/06/10 01:38:09;;;;;;;4.17;3.20;;;;;;;23.29;52.91;100122.19;2114179;28;20042;-43
2021/06/10 01:39:11;;;;;;;;;;;;;;;23.25;52.93;100115.34;2113441;28;20035;-42
2021/06/10 01:40:13;;;;;;;4.88;3.05;;;;;;;23.26;53.08;100114.28;2112485;28;19916;-42
2021/06/10 01:41:15;;;;;;;4.25;3.15;;;;;;;23.27;52.78;100123.38;2111787;28;20703;-43
2021/06/10 01:42:18;;;;;;;4.15;3.40;;;;;;;23.26;53.02;100122.53;2111772;28;20028;-43
2021/06/10 01:43:19;;;;;;;4.85;3.08;;;;;;;23.27;53.04;100120.63;2114805;28;20091;-42
2021/06/10 01:44:21;;;;;;;5.32;3.22;;;;;;;23.27;53.12;100120.63;2118472;27;20448;-43
2021/06/10 01:45:22;;;;;;;3.42;3.13;;;;;;;23.27;52.88;100115.13;2120217;27;20699;-44
2021/06/10 01:46:27;;;;;;;3.42;3.13;;;;;;;23.26;53.13;100117.03;2113932;28;20114;-43
2021/06/10 01:47:28;;;;;;;5.07;2.97;;;;;;;23.27;52.94;100118.78;2113339;28;20047;-44
2021/06/10 01:48:32;;;;;;;3.55;2.92;;;;;;;23.27;52.86;100116.03;2114645;28;20035;-43
2021/06/10 01:49:33;;;;;;;5.43;3.17;;;;;;;23.27;52.99;100112.38;2108876;28;20088;-44
2021/06/10 01:50:33;;;;;;;4.20;3.20;;;;;;;23.26;52.87;100108.78;2114802;27;20133;-43
2021/06/10 01:51:35;;;;;;;3.57;2.80;;;;;;;23.27;52.86;100109.63;2120938;27;20087;-43
2021/06/10 01:52:40;;;;;;;4.55;2.90;;;;;;;23.26;52.87;100111.53;2112515;27;20151;-44
2021/06/10 01:53:44;;;;;;;4.55;3.20;;;;;;;23.26;52.97;100103.28;2105345;28;20085;-43
2021/06/10 01:54:45;;;;;;;4.88;2.90;;;;;;;23.27;52.99;100101.38;2118362;27;20027;-42
2021/06/10 01:55:47;;;;;;;4.10;3.05;;;;;;;23.26;53.11;100103.28;2118051;27;20019;-45
2021/06/10 01:56:48;;;;;;;4.40;3.00;;;;;;;23.26;53.02;100105.19;2112540;28;20103;-43
2021/06/10 01:57:50;;;;;;;3.67;2.88;;;;;;;23.27;53.05;100106.88;2111377;28;20027;-42
2021/06/10 01:58:52;;;;;;;3.80;2.92;;;;;;;23.26;53.13;100105.19;2114628;27;20023;-43
2021/06/10 01:59:55;;;;;;;3.78;3.05;;;;;;;23.25;53.12;100100.69;2113761;28;20032;-41
2021/06/10 02:00:55;;;;;;;4.97;3.05;;;;;;;23.26;52.82;100110.69;2111246;28;20023;-41
2021/06/10 02:02:00;;;;;;;5.03;2.83;;;;;;;23.25;53.03;100104.34;2114345;28;21929;-41
2021/06/10 02:03:02;;;;;;;5.95;3.42;;;;;;;23.25;52.97;100108.94;2106056;28;20043;-42
2021/06/10 02:04:04;;;;;;;4.88;3.22;;;;;;;23.24;53.04;100101.75;2109869;28;20024;-40
2021/06/10 02:05:09;;;;;;;5.30;3.00;;;;;;;23.23;53.13;100111.91;2113096;28;20035;-41
2021/06/10 02:06:10;;;;;;;3.90;2.80;;;;;;;23.24;53.04;100110.00;2111905;28;20032;-42
2021/06/10 02:07:11;;;;;;;5.13;3.60;;;;;;;23.23;52.92;100108.28;2114366;28;20035;-40
2021/06/10 02:08:14;;;;;;;3.70;3.00;;;;;;;23.24;53.04;100112.75;2106138;28;20027;-41
2021/06/10 02:09:16;;;;;;;3.97;3.00;;;;;;;23.25;52.94;100108.94;2108684;28;20027;-40
2021/06/10 02:10:23;;;;;;;5.18;3.55;;;;;;;23.23;53.06;100109.16;2110934;28;20560;-41
2021/06/10 02:11:25;;;;;;;3.70;2.85;;;;;;;23.24;52.97;100107.25;2108492;28;20042;-41
2021/06/10 02:12:25;;;;;;;4.30;2.85;;;;;;;23.23;52.98;100109.16;2111477;28;20035;-40
2021/06/10 02:13:28;;;;;;;5.33;3.37;;;;;;;23.22;52.98;100103.81;2116265;28;20035;-41
2021/06/10 02:14:30;;;;;;;3.72;2.80;;;;;;;23.22;53.15;100104.66;2116780;28;20497;-41
2021/06/10 02:15:31;;;;;;;6.13;2.78;;;;;;;23.21;53.03;100105.72;2115524;28;20609;-41
2021/06/10 02:16:33;;;;;;;5.30;2.90;;;;;;;23.21;53.11;100099.34;2112602;28;20036;-40
2021/06/10 02:17:35;;;;;;;5.13;2.70;;;;;;;23.21;53.04;100105.72;2118045;28;20031;-41
2021/06/10 02:18:38;;;;;;;4.38;2.90;;;;;;;23.23;52.98;100100.03;2115178;28;20028;-40
2021/06/10 02:19:38;;;;;;;4.75;3.42;;;;;;;23.21;53.21;100102.97;2122111;28;20038;-41
2021/06/10 02:20:39;;;;;;;3.63;2.70;;;;;;;23.21;53.03;100091.97;2114849;28;20024;-41
2021/06/10 02:21:39;;;;;;;3.83;2.80;;;;;;;23.22;53.07;100092.81;2113212;28;20601;-42
2021/06/10 02:22:40;;;;;;;3.43;2.73;;;;;;;23.23;53.13;100100.03;2105133;28;20857;-40
2021/06/10 02:23:42;;;;;;;4.20;3.10;;;;;;;23.22;53.13;100092.81;2108046;28;20016;-42
2021/06/10 02:24:42;;;;;;;4.72;2.80;;;;;;;23.21;53.19;100093.88;2119321;28;20454;-42
2021/06/10 02:25:43;;;;;;;4.20;3.10;;;;;;;23.21;53.04;100091.09;2112021;28;20024;-41
2021/06/10 02:26:44;;;;;;;3.60;3.03;;;;;;;23.21;53.15;100096.63;2113857;28;20053;-40
2021/06/10 02:27:45;;;;;;;4.20;2.93;;;;;;;23.20;53.18;100100.38;2111140;28;20019;-42
2021/06/10 02:28:46;;;;;;;4.10;2.83;;;;;;;23.20;53.20;100090.25;2114124;28;20020;-41
2021/06/10 02:29:46;;;;;;;4.13;2.67;;;;;;;23.22;53.16;100103.81;2114347;28;20028;-41
2021/06/10 02:30:47;;;;;;;3.40;2.83;;;;;;;23.21;53.17;100096.63;2111142;28;20048;-40
2021/06/10 02:31:48;;;;;;;4.60;3.20;;;;;;;23.21;52.94;100099.34;2113225;28;20028;-40
2021/06/10 02:32:48;;;;;;;4.67;3.47;;;;;;;23.20;53.20;100098.50;2111746;28;20083;-41
2021/06/10 02:33:49;;;;;;;3.37;2.97;;;;;;;23.20;53.29;100100.38;2105052;28;20069;-41
2021/06/10 02:34:50;;;;;;;5.47;4.13;;;;;;;23.20;53.09;100097.63;2104666;28;20086;-40
2021/06/10 02:35:50;;;;;;;3.67;2.93;;;;;;;23.21;53.30;100096.63;2111874;28;20038;-40
2021/06/10 02:36:51;;;;;;;3.77;2.50;;;;;;;23.19;53.17;100093.16;2114023;28;20024;-40
2021/06/10 02:37:58;;;;;;;3.60;2.50;;;;;;;23.19;53.22;100091.28;2114082;28;20077;-40
2021/06/10 02:39:03;;;;;;;4.75;3.00;;;;;;;23.18;53.22;100092.31;2114088;28;20020;-40
2021/06/10 02:40:12;;;;;;;3.97;2.55;;;;;;;23.19;53.03;100093.16;2112995;28;20047;-41
2021/06/10 02:41:14;;;;;;;3.17;2.78;;;;;;;23.18;53.30;100097.81;2110345;28;20024;-40
2021/06/10 02:42:15;;;;;;;3.30;2.58;;;;;;;23.18;53.02;100092.31;2113296;28;20422;-41
2021/06/10 02:43:16;;;;;;;;;;;;;;;23.17;53.21;100089.75;2114684;28;20066;-41
2021/06/10 02:44:17;;;;;;;3.85;2.90;;;;;;;23.17;53.14;100092.50;2111076;28;19920;-42
2021/06/10 02:45:19;;;;;;;3.83;2.77;;;;;;;23.18;52.97;100085.97;2113891;28;20039;-40
2021/06/10 02:46:20;;;;;;;3.78;2.72;;;;;;;23.18;53.19;100085.97;2117114;28;20435;-42
2021/06/10 02:47:21;;;;;;;3.53;2.80;;;;;;;23.17;52.97;100084.25;2117924;28;20039;-41
2021/06/10 02:48:22;;;;;;;5.38;3.17;;;;;;;23.18;53.11;100091.47;2109282;28;20072;-42
2021/06/10 02:49:24;;;;;;;4.75;3.85;;;;;;;23.19;52.96;100090.41;2114305;28;20409;-40
2021/06/10 02:50:27;;;;;;;5.38;3.13;;;;;;;23.18;53.13;100086.81;2112394;28;20412;-41
2021/06/10 02:51:30;;;;;;;3.17;2.72;;;;;;;23.18;52.94;100089.56;2109496;28;20023;-41
2021/06/10 02:52:31;;;;;;;3.85;2.90;;;;;;;23.19;53.16;100088.53;2113884;28;20038;-40
2021/06/10 02:53:33;;;;;;;3.38;2.70;;;;;;;23.19;53.04;100090.41;2111036;28;20027;-40
2021/06/10 02:54:35;;;;;;;3.65;2.88;;;;;;;23.18;53.11;100085.97;2115700;28;20032;-40
2021/06/10 02:55:36;;;;;;;4.00;3.05;;;;;;;23.17;53.13;100085.09;2118490;27;20502;-40
2021/06/10 02:56:38;;;;;;;3.75;2.83;;;;;;;23.18;53.22;100091.47;2118181;27;20128;-41
2021/06/10 02:57:42;;;;;;;3.47;2.70;;;;;;;23.18;52.88;100091.47;2118060;27;20039;-41
2021/06/10 02:58:44;;;;;;;3.78;2.80;;;;;;;23.18;53.10;100096.97;2115084;28;20019;-43
2021/06/10 02:59:46;;;;;;;4.00;2.63;;;;;;;23.17;53.03;100100.72;2115689;28;20071;-40
2021/06/10 03:00:46;;;;;;;;;;;;;;;23.14;53.27;100095.59;2114328;28;20477;-40
2021/06/10 03:01:47;;;;;;;3.55;2.92;;;;;;;23.15;53.31;100094.56;2118173;27;20314;-40
2021/06/10 03:02:51;;;;;;;3.00;2.67;;;;;;;23.16;53.31;100099.03;2114889;28;20074;-40
2021/06/10 03:03:52;;;;;;;3.97;3.17;;;;;;;23.16;53.23;100093.53;2115289;27;20105;-40
2021/06/10 03:04:53;;;;;;;5.07;2.83;;;;;;;23.16;53.03;100099.03;2116134;27;20438;-40
2021/06/10 03:05:56;;;;;;;3.73;2.83;;;;;;;23.17;53.10;100100.72;2116860;27;20020;-40
2021/06/10 03:06:58;;;;;;;4.65;3.05;;;;;;;23.16;53.09;100104.53;2119662;27;20039;-41
2021/06/10 03:07:58;;;;;;;4.53;2.92;;;;;;;23.16;53.32;100102.63;2114737;27;20823;-40
2021/06/10 03:08:59;;;;;;;3.70;2.60;;;;;;;23.16;53.16;100101.78;2107924;28;20085;-42
2021/06/10 03:10:00;;;;;;;4.17;2.93;;;;;;;23.16;53.04;100099.03;2103606;28;20105;-43
2021/06/10 03:11:05;;;;;;;3.63;2.45;;;;;;;23.17;53.09;100092.50;2113960;28;20027;-44
2021/06/10 03:12:06;;;;;;;2.88;2.58;;;;;;;23.17;53.11;100095.25;2120880;27;20062;-42
2021/06/10 03:13:08;;;;;;;4.60;2.72;;;;;;;23.16;53.36;100088.88;2115922;27;20019;-42
2021/06/10 03:14:10;;;;;;;3.28;2.72;;;;;;;23.17;53.20;100089.75;2107610;28;20031;-43
2021/06/10 03:15:11;;;;;;;5.57;2.85;;;;;;;23.17;53.04;100087.00;2114309;28;20020;-43
2021/06/10 03:16:13;;;;;;;5.20;2.78;;;;;;;23.16;53.04;100093.53;2115381;28;20031;-43
2021/06/10 03:17:17;;;;;;;4.05;2.90;;;;;;;23.16;53.29;100088.03;2115339;28;20107;-43
2021/06/10 03:18:18;;;;;;;4.10;3.13;;;;;;;23.15;53.29;100092.69;2113952;28;20028;-43
2021/06/10 03:19:19;;;;;;;4.32;2.75;;;;;;;23.16;53.18;100088.88;2113792;28;20149;-42
2021/06/10 03:20:20;;;;;;;3.17;2.70;;;;;;;23.16;53.12;100088.88;2113767;28;20040;-45
2021/06/10 03:21:21;;;;;;;3.33;2.78;;;;;;;23.17;52.94;100084.25;2115961;28;20429;-44
2021/06/10 03:22:22;;;;;;;4.18;3.28;;;;;;;23.17;53.14;100095.25;2120386;27;20023;-42
2021/06/10 03:23:23;;;;;;;3.17;2.63;;;;;;;23.17;53.11;100087.00;2115538;27;20555;-42
2021/06/10 03:24:24;;;;;;;4.67;2.97;;;;;;;23.16;53.25;100082.53;2116004;28;20023;-44
2021/06/10 03:25:26;;;;;;;3.08;2.28;;;;;;;23.16;53.03;100088.88;2113390;28;20034;-42
2021/06/10 03:26:28;;;;;;;3.22;2.80;;;;;;;23.15;53.18;100089.94;2115742;28;20027;-46
2021/06/10 03:27:31;;;;;;;3.53;2.55;;;;;;;23.16;53.41;100094.38;2115488;28;20222;-44
2021/06/10 03:28:32;;;;;;;6.75;3.45;;;;;;;23.16;53.29;100090.78;2114784;27;20020;-42
2021/06/10 03:29:33;;;;;;;3.30;2.70;;;;;;;23.16;53.14;100088.03;2124257;27;20027;-44
2021/06/10 03:30:35;;;;;;;3.90;3.17;;;;;;;23.15;53.31;100086.31;2114334;27;20318;-42
2021/06/10 03:31:36;;;;;;;;;;;;;;;23.11;53.25;100081.16;2112908;28;20032;-42
2021/06/10 03:32:38;;;;;;;3.88;2.70;;;;;;;23.12;53.27;100084.75;2121179;27;19911;-43
2021/06/10 03:33:38;;;;;;;3.90;2.83;;;;;;;23.13;53.24;100093.88;2118746;27;20413;-42
2021/06/10 03:34:40;;;;;;;3.97;2.80;;;;;;;23.13;53.32;100091.13;2124132;27;20106;-42
2021/06/10 03:35:42;;;;;;;3.88;2.60;;;;;;;23.12;53.32;100093.00;2112012;27;20024;-43
2021/06/10 03:36:43;;;;;;;3.38;2.30;;;;;;;23.13;53.14;100089.25;2115653;28;20066;-43
2021/06/10 03:37:44;;;;;;;4.13;2.50;;;;;;;23.15;53.08;100102.81;2121911;27;20023;-42
2021/06/10 03:38:46;;;;;;;3.47;2.55;;;;;;;23.16;53.17;100099.03;2117289;27;20054;-43
2021/06/10 03:39:48;;;;;;;4.18;2.85;;;;;;;23.15;53.07;100097.31;2115544;28;20066;-43
2021/06/10 03:40:49;;;;;;;;;;;;;;;23.09;53.33;100094.22;2118631;27;20023;-44
2021/06/10 03:41:52;;;;;;;5.20;3.10;;;;;;;23.11;53.16;100103.16;2119104;27;19922;-43
2021/06/10 03:42:53;;;;;;;4.88;2.78;;;;;;;23.13;53.35;100099.38;2118458;27;20019;-43
2021/06/10 03:43:54;;;;;;;3.63;3.17;;;;;;;23.14;53.07;100095.59;2114169;28;20119;-43
2021/06/10 03:44:55;;;;;;;3.38;2.40;;;;;;;23.14;53.10;100092.84;2114650;28;20397;-42
2021/06/10 03:45:56;;;;;;;3.67;3.10;;;;;;;23.14;53.35;100098.34;2114874;28;20023;-44
2021/06/10 03:46:57;;;;;;;2.67;2.40;;;;;;;23.12;53.25;100098.50;2115740;28;20357;-42
2021/06/10 03:47:58;;;;;;;7.65;3.10;;;;;;;23.13;53.53;100097.50;2113744;28;20028;-43
2021/06/10 03:48:59;;;;;;;4.18;3.40;;;;;;;23.13;53.16;100093.88;2115503;27;20026;-43
2021/06/10 03:50:00;;;;;;;3.47;2.57;;;;;;;23.13;53.37;100093.88;2119016;27;20046;-43
2021/06/10 03:51:00;;;;;;;3.75;2.60;;;;;;;23.13;53.17;100099.38;2115440;28;20115;-43
2021/06/10 03:52:01;;;;;;;4.13;2.83;;;;;;;23.11;53.33;100092.16;2108752;28;20020;-43
2021/06/10 03:53:02;;;;;;;4.80;2.73;;;;;;;23.13;53.29;100099.38;2120565;27;20047;-43
2021/06/10 03:54:05;;;;;;;2.60;2.40;;;;;;;23.13;53.25;100096.63;2111994;27;20340;-42
2021/06/10 03:55:08;;;;;;;3.92;2.58;;;;;;;23.12;53.31;100098.50;2116021;27;20038;-42
2021/06/10 03:56:08;;;;;;;3.22;2.75;;;;;;;23.11;53.37;100097.66;2113485;28;20037;-44
2021/06/10 03:57:10;;;;;;;3.07;2.70;;;;;;;23.11;53.35;100097.66;2115778;28;20026;-43
2021/06/10 03:58:10;;;;;;;3.10;2.63;;;;;;;23.13;53.29;100096.63;2116154;27;20020;-42
2021/06/10 03:59:11;;;;;;;3.43;2.40;;;;;;;23.12;53.20;100101.25;2123940;27;20554;-42
2021/06/10 04:00:11;;;;;;;3.53;2.70;;;;;;;23.13;53.15;100099.38;2115453;27;20334;-42
2021/06/10 04:01:12;;;;;;;3.67;2.50;;;;;;;23.13;53.13;100100.25;2118178;27;20027;-43
2021/06/10 04:02:12;;;;;;;3.83;2.60;;;;;;;23.11;53.21;100094.91;2115111;28;20438;-47
2021/06/10 04:03:13;;;;;;;3.20;2.67;;;;;;;23.11;53.22;100097.66;2115063;28;20030;-43
2021/06/10 04:04:13;;;;;;;3.03;2.73;;;;;;;23.12;53.38;100098.50;2115107;28;20024;-43
2021/06/10 04:05:14;;;;;;;3.93;2.83;;;;;;;23.12;53.37;100098.50;2110410;28;20079;-43
2021/06/10 04:06:16;;;;;;;2.60;2.27;;;;;;;23.13;53.23;100096.63;2109899;27;20032;-42
2021/06/10 04:07:16;;;;;;;;;;;;;;;23.08;53.45;100091.66;2116680;27;20041;-43
2021/06/10 04:08:17;;;;;;;5.35;2.80;;;;;;;23.08;53.37;100100.78;2115255;27;19912;-43
2021/06/10 04:09:17;;;;;;;2.93;2.40;;;;;;;23.09;53.43;100098.88;2115532;28;20438;-43
2021/06/10 04:10:17;;;;;;;4.37;2.80;;;;;;;23.09;53.34;100099.72;2103286;28;20434;-43
2021/06/10 04:11:18;;;;;;;3.30;2.67;;;;;;;23.10;53.30;100100.56;2100277;28;20024;-44
2021/06/10 04:12:18;;;;;;;3.70;2.50;;;;;;;23.10;53.29;100095.06;2114072;27;20051;-43
2021/06/10 04:13:19;;;;;;;4.67;2.83;;;;;;;23.11;53.37;100097.66;2113917;27;20020;-43
2021/06/10 04:14:19;;;;;;;4.23;2.77;;;;;;;23.11;53.51;100102.31;2112604;28;20048;-42
2021/06/10 04:15:20;;;;;;;2.73;2.43;;;;;;;23.10;53.45;100097.81;2111457;27;20030;-43
2021/06/10 04:16:22;;;;;;;3.20;2.50;;;;;;;23.09;53.39;100094.22;2115007;28;20096;-43
2021/06/10 04:17:23;;;;;;;3.25;2.35;;;;;;;23.10;53.53;100100.56;2114733;28;20099;-42
2021/06/10 04:18:23;;;;;;;2.43;2.23;;;;;;;23.08;53.31;100095.28;2113705;28;20077;-43
2021/06/10 04:19:23;;;;;;;3.00;2.37;;;;;;;23.10;53.31;100095.97;2108343;28;20030;-43
2021/06/10 04:20:24;;;;;;;2.87;2.57;;;;;;;23.09;53.46;100099.72;2108481;28;20238;-44
2021/06/10 04:21:25;;;;;;;3.33;2.70;;;;;;;23.10;53.56;100106.06;2110929;28;20069;-43
2021/06/10 04:22:25;;;;;;;2.83;2.30;;;;;;;23.09;53.25;100105.22;2115823;27;20024;-45
2021/06/10 04:23:26;;;;;;;3.77;3.33;;;;;;;23.09;53.50;100102.47;2114799;28;20272;-43
2021/06/10 04:24:26;;;;;;;4.87;2.90;;;;;;;23.11;53.35;100107.81;2111637;28;20032;-43
2021/06/10 04:25:26;;;;;;;4.20;2.77;;;;;;;23.10;53.36;100106.97;2113422;28;20110;-43
2021/06/10 04:26:28;;;;;;;3.57;2.40;;;;;;;23.10;53.30;100106.97;2115294;28;20024;-42
2021/06/10 04:27:28;;;;;;;3.53;2.72;;;;;;;23.10;53.52;100106.97;2115383;27;20035;-42
2021/06/10 04:28:29;;;;;;;3.70;2.77;;;;;;;23.09;53.34;100105.22;2113881;27;20061;-43
2021/06/10 04:29:29;;;;;;;3.27;2.43;;;;;;;23.10;53.39;100109.72;2114145;28;20376;-43
2021/06/10 04:30:29;;;;;;;3.73;2.77;;;;;;;23.08;53.51;100103.53;2112653;28;20038;-43
2021/06/10 04:31:30;;;;;;;2.73;2.33;;;;;;;23.08;53.37;100109.03;2115551;28;20035;-43
2021/06/10 04:32:30;;;;;;;4.30;3.17;;;;;;;23.08;53.42;100103.53;2115219;27;20068;-42
2021/06/10 04:33:31;;;;;;;3.77;2.37;;;;;;;23.08;53.33;100109.03;2115604;28;20123;-42
2021/06/10 04:34:31;;;;;;;3.20;2.60;;;;;;;23.08;53.41;100100.78;2112568;28;20027;-42
2021/06/10 04:35:32;;;;;;;3.77;2.97;;;;;;;23.09;53.58;100107.97;2114575;27;20024;-43
2021/06/10 04:36:32;;;;;;;2.90;2.37;;;;;;;23.08;53.59;100102.66;2123721;27;20035;-43
2021/06/10 04:37:33;;;;;;;3.50;2.60;;;;;;;23.08;53.29;100103.53;2118430;27;20022;-42
2021/06/10 04:38:33;;;;;;;4.60;2.53;;;;;;;23.08;53.57;100102.66;2115184;28;20383;-44
2021/06/10 04:39:34;;;;;;;2.93;2.43;;;;;;;23.08;53.41;100110.91;2113499;28;20582;-42
2021/06/10 04:40:34;;;;;;;3.80;2.80;;;;;;;23.09;53.38;100110.72;2114834;28;20173;-44
2021/06/10 04:41:35;;;;;;;2.90;2.43;;;;;;;23.08;53.62;100106.28;2115197;28;20028;-40
2021/06/10 04:42:35;;;;;;;3.87;3.07;;;;;;;23.08;53.36;100119.16;2113964;28;20079;-41
2021/06/10 04:43:36;;;;;;;2.90;2.50;;;;;;;23.08;53.39;100114.53;2115512;28;20023;-41
2021/06/10 04:44:36;;;;;;;3.10;2.50;;;;;;;23.09;53.55;100127.22;2117523;27;20011;-40
2021/06/10 04:45:37;;;;;;;3.60;2.33;;;;;;;23.08;53.66;100119.16;2113222;28;20773;-40
2021/06/10 04:46:37;;;;;;;3.03;2.33;;;;;;;23.08;53.43;100124.66;2122359;27;20030;-40
2021/06/10 04:47:38;;;;;;;3.33;2.27;;;;;;;23.08;53.46;100124.66;2117881;27;20130;-41
2021/06/10 04:48:38;;;;;;;2.83;2.60;;;;;;;23.07;53.41;100129.28;2122832;27;20023;-42
2021/06/10 04:49:39;;;;;;;2.83;2.47;;;;;;;23.08;53.57;100127.41;2106694;28;20091;-41